Time;durP1;ratioP1;P1;durP2;ratioP2;P2;SDS_P1;SDS_P2;PMS_P1;PMS_P2;Temp;Humidity;BMP_temperature;BMP_pressure;BME280_temperature;BME280_humidity;BME280_pressure;Samples;Min_cycle;Max_cycle;Signal;HPM_P1;HPM_P2
2021/09/25 00:02:02;;;;;;;27.75;17.82;;;;;;;8.89;100.00;99176.97;1656290;86;21946;-79
2021/09/25 00:05:07;;;;;;;27.25;17.25;;;;;;;8.89;100.00;99181.06;1656528;86;21295;-79
2021/09/25 00:08:13;;;;;;;23.15;15.53;;;;;;;8.89;100.00;99181.94;1655475;86;21371;-76
2021/09/25 00:11:18;;;;;;;22.37;16.75;;;;;;;8.89;100.00;99179.20;1656430;86;21374;-78
2021/09/25 00:14:23;;;;;;;28.42;17.00;;;;;;;8.89;100.00;99186.02;1655178;85;21292;-78
2021/09/25 00:17:28;;;;;;;27.87;16.27;;;;;;;8.86;100.00;99180.94;1655194;86;21221;-76
2021/09/25 00:20:33;;;;;;;22.30;16.95;;;;;;;8.85;100.00;99182.52;1656528;86;21182;-79
2021/09/25 00:23:38;;;;;;;27.93;17.05;;;;;;;8.84;100.00;99180.80;1656680;86;21214;-79
2021/09/25 00:26:44;;;;;;;27.82;17.75;;;;;;;8.82;100.00;99189.18;1657154;86;21312;-78
2021/09/25 00:29:48;;;;;;;25.82;18.87;;;;;;;8.80;100.00;99189.91;1675687;85;21350;-78
2021/09/25 00:32:54;;;;;;;30.15;18.62;;;;;;;8.78;100.00;99197.41;1684412;85;21921;-78
2021/09/25 00:35:59;;;;;;;28.92;17.45;;;;;;;8.77;100.00;99200.34;1684266;85;21779;-79
2021/09/25 00:39:05;;;;;;;25.97;16.67;;;;;;;8.75;100.00;99205.12;1683376;85;21856;-79
2021/09/25 00:42:10;;;;;;;35.95;18.40;;;;;;;8.73;100.00;99205.33;1683501;85;21217;-77
2021/09/25 00:45:19;;;;;;;29.52;17.82;;;;;;;8.69;100.00;99199.92;1658705;85;21826;-79
2021/09/25 00:48:25;;;;;;;29.90;17.35;;;;;;;8.67;100.00;99202.01;1656326;86;21786;-77
2021/09/25 00:51:32;;;;;;;28.67;18.70;;;;;;;8.65;100.00;99205.42;1656238;86;21227;-77
2021/09/25 00:54:37;;;;;;;27.00;17.92;;;;;;;8.60;100.00;99199.18;1656473;86;21307;-76
2021/09/25 00:57:42;;;;;;;22.87;14.63;;;;;;;8.57;100.00;99205.03;1655897;86;21845;-79
2021/09/25 01:00:47;;;;;;;32.35;17.77;;;;;;;8.56;100.00;99207.93;1673873;85;21205;-78
2021/09/25 01:03:52;;;;;;;26.55;17.62;;;;;;;8.54;100.00;99204.56;1673846;85;21774;-78
2021/09/25 01:06:58;;;;;;;26.80;17.57;;;;;;;8.51;100.00;99203.05;1673366;85;21370;-77
2021/09/25 01:10:03;;;;;;;28.62;17.67;;;;;;;8.50;100.00;99207.33;1672381;85;21364;-77
2021/09/25 01:13:07;;;;;;;28.52;16.57;;;;;;;8.47;100.00;99210.43;1672115;85;21520;-79
2021/09/25 01:16:13;;;;;;;23.57;15.83;;;;;;;8.44;100.00;99212.51;1706023;84;21293;-79
2021/09/25 01:19:18;;;;;;;27.87;15.63;;;;;;;8.42;100.00;99213.23;1686710;85;21211;-79
2021/09/25 01:22:24;;;;;;;33.65;15.63;;;;;;;8.40;100.00;99210.35;1686507;85;21329;-79
2021/09/25 01:25:29;;;;;;;25.70;15.05;;;;;;;8.37;100.00;99218.89;1687329;85;21305;-79
2021/09/25 01:28:36;;;;;;;26.62;15.70;;;;;;;8.35;100.00;99217.70;1685304;85;21879;-79
2021/09/25 01:31:43;;;;;;;25.65;15.75;;;;;;;8.33;100.00;99221.66;1684351;85;21212;-79
2021/09/25 01:34:49;;;;;;;19.15;13.90;;;;;;;8.30;100.00;99222.03;1684301;85;21291;-78
2021/09/25 01:37:55;;;;;;;32.83;14.07;;;;;;;8.27;100.00;99230.05;1684397;85;21338;-78
2021/09/25 01:41:01;;;;;;;26.85;16.02;;;;;;;8.25;100.00;99232.64;1684334;85;21789;-79
2021/09/25 01:44:07;;;;;;;24.63;15.83;;;;;;;8.23;100.00;99231.97;1683500;85;21343;-76
2021/09/25 01:47:12;;;;;;;23.62;14.75;;;;;;;8.22;100.00;99241.19;1682184;85;21350;-79
2021/09/25 01:50:19;;;;;;;25.85;15.75;;;;;;;8.20;100.00;99248.19;1681656;85;21299;-78
2021/09/25 01:53:25;;;;;;;25.15;15.40;;;;;;;8.17;100.00;99245.30;1682445;85;21352;-77
2021/09/25 01:56:31;;;;;;;26.40;15.23;;;;;;;8.14;100.00;99251.15;1682828;85;21856;-79
2021/09/25 01:59:36;;;;;;;24.15;14.78;;;;;;;8.14;100.00;99262.56;1665517;85;21766;-79
2021/09/25 02:02:41;;;;;;;22.25;13.68;;;;;;;8.10;100.00;99263.45;1655589;86;21251;-79
2021/09/25 02:05:46;;;;;;;26.93;14.28;;;;;;;8.06;100.00;99258.03;1673753;85;21344;-76
2021/09/25 02:08:52;;;;;;;21.17;14.53;;;;;;;8.04;100.00;99265.52;1645178;86;21307;-77
2021/09/25 02:11:57;;;;;;;25.97;15.18;;;;;;;8.01;100.00;99267.80;1646049;87;21350;-79
2021/09/25 02:15:01;;;;;;;27.60;15.48;;;;;;;7.97;100.00;99268.67;1667634;85;21252;-79
2021/09/25 02:18:07;;;;;;;18.37;12.20;;;;;;;7.92;100.00;99276.03;1688310;85;21906;-78
2021/09/25 02:21:12;;;;;;;18.20;11.03;;;;;;;7.88;100.00;99278.80;1688141;85;21243;-79
2021/09/25 02:24:17;;;;;;;23.42;15.55;;;;;;;7.85;100.00;99284.59;1689654;85;21228;-76
2021/09/25 02:27:22;;;;;;;19.77;11.90;;;;;;;7.83;100.00;99285.83;1688185;85;21351;-76
2021/09/25 02:30:28;;;;;;;24.00;12.50;;;;;;;7.83;100.00;99289.91;1660758;85;21196;-77
2021/09/25 02:33:32;;;;;;;21.15;12.68;;;;;;;7.81;100.00;99296.03;1661842;86;21832;-80
2021/09/25 02:36:37;;;;;;;25.97;13.58;;;;;;;7.79;100.00;99294.02;1661845;86;21325;-78
2021/09/25 02:39:42;;;;;;;25.48;11.93;;;;;;;7.78;100.00;99297.27;1661650;86;21358;-80
2021/09/25 02:42:48;;;;;;;18.12;11.25;;;;;;;7.77;100.00;99302.91;1660917;86;21220;-77
2021/09/25 02:45:52;;;;;;;26.20;12.45;;;;;;;7.75;100.00;99311.23;1660465;86;21379;-77
2021/09/25 02:48:57;;;;;;;23.27;12.10;;;;;;;7.74;100.00;99310.91;1660316;86;21294;-80
2021/09/25 02:52:02;;;;;;;19.92;11.65;;;;;;;7.72;100.00;99318.94;1660403;86;21323;-80
2021/09/25 02:55:07;;;;;;;20.90;13.62;;;;;;;7.73;100.00;99324.70;1660483;86;21160;-79
2021/09/25 02:58:12;;;;;;;23.80;11.22;;;;;;;7.72;100.00;99326.58;1660418;85;21239;-76
2021/09/25 03:01:18;;;;;;;18.62;11.38;;;;;;;7.73;100.00;99335.08;1660773;86;21316;-79
2021/09/25 03:04:23;;;;;;;18.80;11.22;;;;;;;7.71;100.00;99328.11;1661858;86;21169;-77
2021/09/25 03:07:29;;;;;;;18.70;9.85;;;;;;;7.69;100.00;99326.94;1661190;86;21355;-79
2021/09/25 03:10:34;;;;;;;21.10;12.23;;;;;;;7.69;100.00;99329.66;1661668;86;22235;-80
2021/09/25 03:13:39;;;;;;;22.67;11.90;;;;;;;7.71;100.00;99326.23;1661632;85;21308;-80
2021/09/25 03:16:44;;;;;;;22.65;11.15;;;;;;;7.70;100.00;99324.54;1660602;86;21309;-80
2021/09/25 03:19:49;;;;;;;21.97;10.95;;;;;;;7.68;100.00;99322.02;1661822;86;21221;-79
2021/09/25 03:22:55;;;;;;;22.42;11.78;;;;;;;7.67;100.00;99320.33;1661888;86;21217;-79
2021/09/25 03:25:59;;;;;;;21.35;10.60;;;;;;;7.67;100.00;99321.69;1661628;86;21293;-79
2021/09/25 03:29:04;;;;;;;17.70;10.80;;;;;;;7.67;100.00;99324.92;1661406;84;21242;-80
2021/09/25 03:32:09;;;;;;;21.95;11.68;;;;;;;7.66;100.00;99332.22;1663938;86;21291;-76
2021/09/25 03:35:15;;;;;;;21.27;11.35;;;;;;;7.66;100.00;99336.30;1665033;86;21286;-77
2021/09/25 03:38:24;;;;;;;17.07;9.48;;;;;;;7.68;100.00;99337.50;1676495;85;21323;-77
2021/09/25 03:41:30;;;;;;;21.85;10.10;;;;;;;7.69;100.00;99333.22;1659274;86;21326;-80
2021/09/25 03:44:34;;;;;;;25.30;10.58;;;;;;;7.71;100.00;99346.64;1664895;86;21199;-76
2021/09/25 03:47:40;;;;;;;19.60;11.60;;;;;;;7.71;100.00;99348.00;1676815;85;21264;-77
2021/09/25 03:50:46;;;;;;;16.93;11.08;;;;;;;7.69;100.00;99352.80;1664918;86;21313;-80
2021/09/25 03:53:51;;;;;;;30.72;11.93;;;;;;;7.66;100.00;99353.14;1677605;85;21295;-78
2021/09/25 03:56:56;;;;;;;19.50;10.08;;;;;;;7.67;100.00;99365.23;1664445;86;21341;-80
2021/09/25 04:00:01;;;;;;;15.60;10.85;;;;;;;7.67;100.00;99373.41;1665376;84;21258;-79
2021/09/25 04:03:06;;;;;;;23.87;11.20;;;;;;;7.63;100.00;99372.06;1664431;86;21322;-79
2021/09/25 04:06:12;;;;;;;23.35;11.28;;;;;;;7.61;100.00;99376.82;1651595;87;21387;-77
2021/09/25 04:09:16;;;;;;;20.48;9.73;;;;;;;7.60;100.00;99371.05;1664668;85;21188;-77
2021/09/25 04:12:21;;;;;;;19.12;9.08;;;;;;;7.62;100.00;99392.63;1651944;87;21924;-77
2021/09/25 04:15:28;;;;;;;14.95;8.10;;;;;;;7.60;100.00;99394.70;1664756;86;21833;-80
2021/09/25 04:18:34;;;;;;;15.03;8.93;;;;;;;7.60;100.00;99412.39;1664897;86;21315;-76
2021/09/25 04:21:39;;;;;;;16.20;7.80;;;;;;;7.60;100.00;99413.75;1664394;86;21351;-80
2021/09/25 04:24:44;;;;;;;19.90;9.43;;;;;;;7.63;100.00;99419.69;1664971;86;21208;-80
2021/09/25 04:27:51;;;;;;;18.45;8.05;;;;;;;7.71;100.00;99420.66;1663758;86;21334;-79
2021/09/25 04:30:56;;;;;;;11.25;6.72;;;;;;;7.78;100.00;99432.53;1678074;83;21913;-77
2021/09/25 04:34:00;;;;;;;19.32;7.22;;;;;;;7.89;100.00;99437.03;1702017;84;21296;-80
2021/09/25 04:37:06;;;;;;;13.00;6.45;;;;;;;8.07;100.00;99433.19;1701909;84;21731;-76
2021/09/25 04:40:12;;;;;;;13.60;6.50;;;;;;;8.25;100.00;99445.98;1701992;84;21873;-80
2021/09/25 04:43:17;;;;;;;13.32;6.72;;;;;;;8.42;100.00;99444.86;1699782;83;21335;-80
2021/09/25 04:46:21;;;;;;;13.90;5.97;;;;;;;8.61;100.00;99446.72;1634851;88;21939;-80
2021/09/25 04:49:27;;;;;;;13.55;7.25;;;;;;;8.82;100.00;99449.59;1663627;86;21204;-79
2021/09/25 04:52:32;;;;;;;12.45;5.60;;;;;;;9.02;100.00;99447.67;1661673;86;21312;-77
2021/09/25 04:55:37;;;;;;;8.15;4.85;;;;;;;9.20;100.00;99453.09;1661916;86;21276;-76
2021/09/25 04:58:43;;;;;;;11.05;4.87;;;;;;;9.36;100.00;99452.07;1661110;86;21193;-77
2021/09/25 05:01:48;;;;;;;13.20;5.03;;;;;;;9.47;99.87;99461.13;1691496;85;21332;-80
2021/09/25 05:04:54;;;;;;;14.07;5.25;;;;;;;9.54;98.30;99460.36;1692915;85;21178;-78
2021/09/25 05:08:00;;;;;;;11.00;5.28;;;;;;;9.54;97.33;99465.30;1692502;84;21214;-78
2021/09/25 05:11:05;;;;;;;11.28;5.22;;;;;;;9.58;96.67;99469.34;1692927;84;21305;-79
2021/09/25 05:14:09;;;;;;;13.18;5.00;;;;;;;9.62;95.86;99464.36;1692755;85;21171;-78
2021/09/25 05:17:14;;;;;;;13.48;5.58;;;;;;;9.62;95.44;99458.90;1704120;84;21830;-80
2021/09/25 05:20:20;;;;;;;11.95;5.15;;;;;;;9.65;95.51;99464.83;1672152;86;21197;-77
2021/09/25 05:23:25;;;;;;;12.10;4.72;;;;;;;9.72;95.40;99463.53;1700918;84;21613;-80
2021/09/25 05:26:31;;;;;;;13.22;4.40;;;;;;;9.77;95.04;99463.80;1673496;85;21331;-78
2021/09/25 05:29:30;;;;;;;15.60;5.55;;;;;;;9.80;94.52;99472.15;1661879;86;21813;-80
2021/09/25 05:32:36;;;;;;;13.03;5.22;;;;;;;9.78;94.23;99470.95;1662418;85;21253;-80
2021/09/25 05:35:41;;;;;;;10.90;4.37;;;;;;;9.78;94.18;99480.52;1662051;86;21537;-80
2021/09/25 05:38:47;;;;;;;8.50;4.03;;;;;;;9.81;94.11;99482.87;1660843;86;21978;-77
2021/09/25 05:41:52;;;;;;;9.48;4.40;;;;;;;9.83;94.03;99483.52;1661277;86;21277;-78
2021/09/25 05:44:58;;;;;;;11.30;4.37;;;;;;;9.83;93.79;99484.88;1661658;86;21325;-80
2021/09/25 05:48:04;;;;;;;8.93;4.10;;;;;;;9.83;93.67;99484.03;1660764;86;21221;-77
2021/09/25 05:51:12;;;;;;;7.90;4.80;;;;;;;9.85;93.97;99486.92;1661632;86;21312;-78
2021/09/25 05:54:18;;;;;;;10.53;3.92;;;;;;;9.86;94.14;99484.51;1660646;86;21228;-78
2021/09/25 05:57:23;;;;;;;10.03;4.10;;;;;;;9.89;94.17;99489.59;1661129;86;21810;-80
2021/09/25 06:00:28;;;;;;;12.93;4.80;;;;;;;9.94;94.33;99495.85;1661814;86;21774;-78
2021/09/25 06:03:35;;;;;;;8.23;4.45;;;;;;;9.99;94.69;99500.22;1661839;86;21803;-79
2021/09/25 06:06:42;;;;;;;10.88;4.10;;;;;;;10.06;94.86;99507.11;1661621;86;21245;-80
2021/09/25 06:09:48;;;;;;;6.75;3.85;;;;;;;10.13;94.61;99512.15;1662145;86;21866;-81
2021/09/25 06:12:52;;;;;;;9.58;4.35;;;;;;;10.19;94.26;99525.88;1660942;85;21331;-78
2021/09/25 06:15:58;;;;;;;8.18;4.72;;;;;;;10.31;94.42;99539.93;1660795;85;21755;-78
2021/09/25 06:19:03;;;;;;;12.45;4.30;;;;;;;10.49;94.34;99540.83;1661964;86;21790;-81
2021/09/25 06:22:09;;;;;;;13.40;4.70;;;;;;;10.71;93.54;99544.43;1661355;86;21842;-77
2021/09/25 06:25:14;;;;;;;15.40;5.58;;;;;;;10.89;92.85;99552.17;1661905;86;21308;-79
2021/09/25 06:28:18;;;;;;;9.35;5.33;;;;;;;11.03;92.59;99559.45;1660548;86;21360;-81
2021/09/25 06:31:23;;;;;;;11.10;4.87;;;;;;;11.11;91.96;99561.22;1689671;85;21786;-81
2021/09/25 06:34:28;;;;;;;9.88;5.47;;;;;;;11.12;91.24;99566.48;1685702;85;21354;-78
2021/09/25 06:37:35;;;;;;;13.10;5.47;;;;;;;11.07;90.45;99566.76;1686513;85;21245;-79
2021/09/25 06:40:39;;;;;;;11.48;5.10;;;;;;;11.07;90.48;99572.23;1687343;85;21405;-78
2021/09/25 06:43:44;;;;;;;10.38;5.35;;;;;;;11.16;91.09;99579.26;1687102;85;21228;-77
2021/09/25 06:46:50;;;;;;;9.15;5.22;;;;;;;11.32;91.50;99584.95;1686878;85;21201;-79
2021/09/25 06:49:56;;;;;;;9.15;4.40;;;;;;;11.47;91.35;99583.80;1685388;85;21656;-79
2021/09/25 06:53:02;;;;;;;10.82;4.90;;;;;;;11.65;90.70;99596.14;1685455;85;21375;-80
2021/09/25 06:56:09;;;;;;;8.98;4.67;;;;;;;11.82;89.76;99608.52;1685187;85;21200;-80
2021/09/25 06:59:14;;;;;;;14.23;5.33;;;;;;;11.94;87.66;99612.37;1673826;85;21738;-78
2021/09/25 07:02:20;;;;;;;12.58;5.62;;;;;;;12.06;86.87;99617.30;1660087;86;21833;-78
2021/09/25 07:05:27;;;;;;;6.37;4.20;;;;;;;12.18;87.36;99614.28;1659199;86;21342;-78
2021/09/25 07:08:32;;;;;;;8.65;3.85;;;;;;;12.30;85.39;99620.89;1660373;86;21667;-79
2021/09/25 07:11:39;;;;;;;10.20;4.65;;;;;;;12.36;84.40;99639.27;1645775;87;21374;-78
2021/09/25 07:14:45;;;;;;;7.92;3.92;;;;;;;12.36;83.85;99637.05;1646645;86;21264;-79
2021/09/25 07:17:50;;;;;;;9.73;3.90;;;;;;;12.37;83.73;99645.06;1663519;86;21845;-79
2021/09/25 07:20:56;;;;;;;6.90;3.77;;;;;;;12.38;83.09;99656.38;1664092;86;21308;-81
2021/09/25 07:24:02;;;;;;;10.82;4.20;;;;;;;12.34;83.46;99654.25;1663839;86;21881;-79
2021/09/25 07:27:07;;;;;;;7.75;3.47;;;;;;;12.31;83.72;99666.98;1663386;86;21323;-79
2021/09/25 07:30:14;;;;;;;8.40;3.80;;;;;;;12.24;84.00;99667.80;1685965;84;21293;-78
2021/09/25 07:33:20;;;;;;;11.65;4.30;;;;;;;12.16;84.28;99669.33;1689371;84;21368;-81
2021/09/25 07:36:27;;;;;;;5.87;3.62;;;;;;;12.08;84.75;99668.64;1702990;83;21901;-78
2021/09/25 07:39:34;;;;;;;5.30;3.35;;;;;;;12.04;84.92;99677.78;1645538;87;21821;-78
2021/09/25 07:42:39;;;;;;;11.83;3.80;;;;;;;12.04;84.76;99684.64;1672519;85;21358;-78
2021/09/25 07:45:43;;;;;;;7.37;4.12;;;;;;;11.99;84.85;99681.13;1689078;85;21331;-80
2021/09/25 07:48:48;;;;;;;13.55;3.90;;;;;;;11.91;86.35;99688.16;1690463;85;21840;-81
2021/09/25 07:51:55;;;;;;;9.58;4.03;;;;;;;11.73;88.21;99687.25;1684428;85;21335;-79
2021/09/25 07:55:00;;;;;;;6.80;3.98;;;;;;;11.57;89.62;99693.00;1693061;84;21360;-81
2021/09/25 07:58:05;;;;;;;17.30;3.87;;;;;;;11.54;90.95;99696.68;1692157;83;21908;-81
2021/09/25 08:01:10;;;;;;;6.22;3.40;;;;;;;11.60;91.56;99709.58;1701349;84;21318;-78
2021/09/25 08:04:15;;;;;;;4.97;3.40;;;;;;;11.65;90.23;99700.24;1684599;85;21193;-81
2021/09/25 08:07:20;;;;;;;6.10;3.00;;;;;;;11.70;89.72;99703.23;1713995;83;21339;-79
2021/09/25 08:10:25;;;;;;;6.00;3.20;;;;;;;11.80;89.78;99703.73;1685753;85;21241;-80
2021/09/25 08:13:31;;;;;;;4.55;3.40;;;;;;;11.95;89.38;99707.27;1674039;85;22189;-80
2021/09/25 08:16:36;;;;;;;4.95;2.62;;;;;;;12.12;89.47;99708.31;1673280;85;21932;-81
2021/09/25 08:19:42;;;;;;;6.87;2.90;;;;;;;12.32;89.42;99708.43;1674115;85;21367;-78
2021/09/25 08:22:48;;;;;;;3.52;2.20;;;;;;;12.49;88.16;99707.90;1673452;85;21322;-80
2021/09/25 08:25:56;;;;;;;6.85;2.60;;;;;;;12.68;86.48;99706.83;1673440;85;21394;-81
2021/09/25 08:29:01;;;;;;;7.55;2.47;;;;;;;12.74;85.54;99706.00;1674116;85;21735;-80
2021/09/25 08:32:07;;;;;;;4.20;2.72;;;;;;;12.79;84.98;99702.95;1673674;85;21766;-81
2021/09/25 08:35:12;;;;;;;4.85;2.33;;;;;;;12.84;85.02;99701.50;1672589;83;21256;-79
2021/09/25 08:38:17;;;;;;;2.72;2.15;;;;;;;12.93;82.68;99705.75;1662663;86;22021;-81
2021/09/25 08:41:21;;;;;;;3.33;1.92;;;;;;;13.03;80.56;99708.45;1662406;86;21871;-81
2021/09/25 08:44:27;;;;;;;6.95;2.22;;;;;;;13.19;80.99;99706.36;1663613;86;21804;-80
2021/09/25 08:47:32;;;;;;;5.22;1.70;;;;;;;13.32;79.46;99709.17;1663509;86;21278;-78
2021/09/25 08:50:37;;;;;;;8.43;1.90;;;;;;;13.36;79.14;99706.33;1662315;85;21301;-78
2021/09/25 08:53:42;;;;;;;6.28;2.10;;;;;;;13.45;78.37;99715.19;1662479;86;21427;-81
2021/09/25 08:56:48;;;;;;;9.03;1.80;;;;;;;13.55;77.57;99713.75;1662313;86;21293;-81
2021/09/25 08:59:53;;;;;;;2.45;1.60;;;;;;;13.63;75.64;99711.83;1663450;86;21628;-79
2021/09/25 09:03:00;;;;;;;4.12;1.82;;;;;;;13.63;75.19;99726.41;1662495;86;21883;-79
2021/09/25 09:06:24;;;;;;;3.40;1.70;;;;;;;13.65;76.12;99723.48;1663596;86;21320;-80
2021/09/25 09:09:31;;;;;;;2.77;1.70;;;;;;;13.66;75.83;99727.91;1663708;86;21388;-81
2021/09/25 09:12:36;;;;;;;2.67;1.65;;;;;;;13.68;75.96;99731.28;1663601;86;21325;-81
2021/09/25 09:15:45;;;;;;;6.53;1.47;;;;;;;13.74;75.89;99730.46;1663515;86;21327;-81
2021/09/25 09:18:53;;;;;;;3.70;1.75;;;;;;;13.78;74.63;99726.20;1663544;86;21306;-81
2021/09/25 09:21:58;;;;;;;5.87;1.40;;;;;;;13.80;75.25;99732.36;1663156;86;21881;-80
2021/09/25 09:25:03;;;;;;;3.37;1.47;;;;;;;13.73;74.52;99741.11;1663000;86;21340;-78
2021/09/25 09:28:08;;;;;;;2.45;1.70;;;;;;;13.68;75.30;99746.39;1663632;86;21777;-78
2021/09/25 09:31:15;;;;;;;3.67;1.40;;;;;;;13.62;75.45;99757.70;1663452;86;21207;-79
2021/09/25 09:34:21;;;;;;;1.40;1.30;;;;;;;13.57;75.98;99756.64;1663356;86;21190;-81
2021/09/25 09:37:26;;;;;;;5.03;1.52;;;;;;;13.54;75.38;99760.64;1688571;84;21288;-81
2021/09/25 09:40:32;;;;;;;2.40;1.52;;;;;;;13.55;75.94;99764.58;1672872;85;21244;-80
2021/09/25 09:43:38;;;;;;;2.47;1.15;;;;;;;13.64;75.11;99775.34;1660417;86;21288;-81
2021/09/25 09:46:49;;;;;;;1.10;1.00;;;;;;;13.70;74.90;99778.13;1660514;86;21929;-80
2021/09/25 09:49:55;;;;;;;1.80;1.27;;;;;;;13.75;74.57;99785.74;1661707;86;21213;-78
2021/09/25 09:53:00;;;;;;;1.92;1.12;;;;;;;13.72;74.94;99792.48;1640254;86;21257;-78
2021/09/25 09:56:31;;;;;;;2.60;1.27;;;;;;;13.67;75.61;99788.15;1660594;86;21810;-78
2021/09/25 09:59:36;;;;;;;1.57;1.32;;;;;;;13.66;75.77;99791.12;1661500;86;21313;-78
2021/09/25 10:02:41;;;;;;;2.30;1.32;;;;;;;13.71;75.86;99788.59;1660849;86;21360;-78
2021/09/25 10:05:47;;;;;;;3.58;1.60;;;;;;;13.81;75.82;99790.39;1641928;86;21347;-81
2021/09/25 10:08:53;;;;;;;2.25;1.30;;;;;;;13.95;74.50;99797.59;1661749;86;21202;-78
2021/09/25 10:12:10;;;;;;;3.10;1.87;;;;;;;14.04;73.75;99790.83;1661171;86;21345;-81
2021/09/25 10:15:17;;;;;;;4.58;1.65;;;;;;;14.16;73.21;99795.67;1661571;86;21315;-78
2021/09/25 10:18:23;;;;;;;1.52;1.35;;;;;;;14.27;73.13;99810.19;1660534;86;21348;-81
2021/09/25 10:21:28;;;;;;;3.62;1.50;;;;;;;14.29;70.94;99808.05;1661602;86;21256;-79
2021/09/25 10:24:39;;;;;;;2.67;1.50;;;;;;;14.31;70.84;99812.83;1661751;86;21201;-81
2021/09/25 10:27:47;;;;;;;1.98;1.55;;;;;;;14.37;70.70;99792.71;1660390;86;21323;-81
2021/09/25 10:30:52;;;;;;;2.35;1.85;;;;;;;14.42;70.86;99805.30;1661703;86;21293;-79
2021/09/25 10:34:21;;;;;;;6.67;1.62;;;;;;;14.52;71.95;99807.11;1637743;86;21333;-81
2021/09/25 10:37:27;;;;;;;4.45;1.50;;;;;;;14.66;70.57;99803.80;1666345;85;21313;-79
2021/09/25 10:40:35;;;;;;;1.52;1.30;;;;;;;14.78;68.23;99802.09;1654475;85;21334;-78
2021/09/25 10:43:41;;;;;;;3.17;1.40;;;;;;;14.84;68.53;99805.88;1678748;85;21327;-80
2021/09/25 10:46:46;;;;;;;1.77;1.60;;;;;;;14.81;67.43;99811.80;1665862;85;21693;-81
2021/09/25 10:50:07;;;;;;;2.12;1.30;;;;;;;14.75;65.27;99809.92;1680089;85;21375;-79
2021/09/25 10:53:19;;;;;;;1.85;1.67;;;;;;;14.66;66.38;99808.47;1690234;85;21390;-78
2021/09/25 10:56:32;;;;;;;2.92;1.82;;;;;;;14.61;68.03;99800.85;1679633;85;21852;-78
2021/09/25 10:59:37;;;;;;;2.40;1.30;;;;;;;14.68;68.88;99809.08;1708657;84;21757;-78
2021/09/25 11:02:51;;;;;;;2.65;1.55;;;;;;;14.76;64.95;99806.11;1690423;85;21315;-81
2021/09/25 11:06:11;;;;;;;2.45;1.80;;;;;;;14.84;65.03;99810.01;1679881;85;21292;-81
2021/09/25 11:09:33;;;;;;;1.95;1.67;;;;;;;14.87;62.89;99812.34;1690209;85;21330;-81
2021/09/25 11:12:52;;;;;;;3.17;1.95;;;;;;;14.89;63.50;99804.70;1679032;85;21319;-80
2021/09/25 11:15:58;;;;;;;3.37;1.70;;;;;;;14.87;63.82;99812.34;1708507;84;21296;-78
2021/09/25 11:19:03;;;;;;;1.75;1.65;;;;;;;14.87;64.81;99804.08;1670520;85;21192;-78
2021/09/25 11:22:40;;;;;;;2.00;1.77;;;;;;;14.92;63.88;99804.27;1679449;85;21912;-81
2021/09/25 11:25:46;;;;;;;1.75;1.65;;;;;;;14.99;64.03;99799.58;1691331;85;21295;-81
2021/09/25 11:28:51;;;;;;;4.97;1.52;;;;;;;15.04;63.68;99806.65;1679038;85;21311;-78
2021/09/25 11:31:57;;;;;;;3.37;1.60;;;;;;;15.15;64.40;99813.91;1690786;85;21307;-82
2021/09/25 11:35:02;;;;;;;1.90;1.42;;;;;;;15.27;64.47;99822.66;1679997;85;21845;-78
2021/09/25 11:38:14;;;;;;;1.20;1.10;;;;;;;15.37;63.70;99827.70;1688680;85;21386;-81
2021/09/25 11:41:23;;;;;;;2.27;1.12;;;;;;;15.39;63.27;99831.11;1680127;85;21287;-79
2021/09/25 11:44:28;;;;;;;1.87;1.17;;;;;;;15.35;61.76;99827.09;1710246;84;21821;-81
2021/09/25 11:47:45;;;;;;;3.35;1.27;;;;;;;15.25;61.79;99832.23;1691052;85;21315;-81
2021/09/25 11:50:55;;;;;;;1.67;1.22;;;;;;;15.22;63.03;99838.16;1652178;87;21319;-78
2021/09/25 11:54:01;;;;;;;2.20;1.25;;;;;;;15.26;62.28;99847.69;1663375;86;21306;-80
2021/09/25 11:57:07;;;;;;;4.10;2.42;;;;;;;15.24;62.16;99844.29;1663648;86;21287;-78
2021/09/25 12:00:25;;;;;;;1.60;1.00;;;;;;;15.22;62.91;99844.52;1663557;85;21294;-80
2021/09/25 12:03:39;;;;;;;1.27;0.95;;;;;;;15.20;63.20;99853.55;1663312;86;21233;-81
2021/09/25 12:06:42;;;;;;;1.37;1.10;;;;;;;15.18;64.04;99858.41;1663500;86;21332;-79
2021/09/25 12:09:51;;;;;;;9.63;1.25;;;;;;;15.18;63.66;99855.66;1662835;86;21870;-81
2021/09/25 12:13:02;;;;;;;1.98;1.10;;;;;;;15.19;63.64;99860.09;1663457;86;21325;-81
2021/09/25 12:16:14;;;;;;;2.50;0.90;;;;;;;15.13;64.12;99858.75;1663449;86;21305;-81
2021/09/25 12:19:21;;;;;;;2.80;1.00;;;;;;;15.05;63.34;99870.84;1662790;86;21300;-81
2021/09/25 12:22:29;;;;;;;1.12;1.00;;;;;;;14.95;64.25;99872.66;1650271;86;21360;-79
2021/09/25 12:25:35;;;;;;;2.72;0.88;;;;;;;14.83;65.23;99874.41;1662048;86;21894;-81
2021/09/25 12:28:54;;;;;;;4.60;1.17;;;;;;;14.75;65.82;99876.00;1663186;85;21366;-81
2021/09/25 12:32:08;;;;;;;1.00;0.85;;;;;;;14.70;66.31;99884.05;1663165;86;21340;-78
2021/09/25 12:35:27;;;;;;;2.40;1.02;;;;;;;14.62;66.40;99889.77;1662387;86;21222;-79
2021/09/25 12:38:40;;;;;;;2.30;1.27;;;;;;;14.56;66.73;99889.56;1663299;86;21324;-80
2021/09/25 12:41:53;;;;;;;2.00;1.10;;;;;;;14.51;66.49;99887.98;1662244;86;21225;-79
2021/09/25 12:45:02;;;;;;;1.90;1.15;;;;;;;14.43;66.86;99889.53;1663331;85;21293;-80
2021/09/25 12:48:22;;;;;;;1.37;1.02;;;;;;;14.36;67.32;99898.33;1662717;86;21349;-78
2021/09/25 12:51:35;;;;;;;3.17;1.00;;;;;;;14.33;67.75;99891.86;1663714;86;21372;-80
2021/09/25 12:54:53;;;;;;;1.25;1.05;;;;;;;14.29;67.78;99891.95;1662294;86;21301;-81
2021/09/25 12:58:07;;;;;;;1.55;0.75;;;;;;;14.25;67.92;99899.77;1662388;86;21258;-78
2021/09/25 13:01:12;;;;;;;3.90;1.07;;;;;;;14.22;68.59;99908.47;1663331;86;21171;-78
2021/09/25 13:04:33;;;;;;;1.22;1.00;;;;;;;14.27;69.00;99909.22;1662180;86;21217;-81
2021/09/25 13:07:45;;;;;;;2.08;1.22;;;;;;;14.28;68.24;99910.91;1662903;86;21367;-80
2021/09/25 13:10:58;;;;;;;4.03;1.00;;;;;;;14.30;68.18;99922.53;1662197;86;21214;-79
2021/09/25 13:14:20;;;;;;;1.47;1.15;;;;;;;14.35;68.36;99915.90;1662220;85;21218;-78
2021/09/25 13:17:25;;;;;;;1.30;1.20;;;;;;;14.42;68.73;99915.89;1662639;86;21230;-80
2021/09/25 13:20:34;;;;;;;1.00;0.90;;;;;;;14.45;68.08;99921.83;1663538;86;21305;-79
2021/09/25 13:23:40;;;;;;;1.32;1.00;;;;;;;14.51;68.38;99924.28;1663638;86;21549;-81
2021/09/25 13:26:47;;;;;;;2.92;1.10;;;;;;;14.66;69.16;99925.45;1663064;86;21916;-81
2021/09/25 13:29:53;;;;;;;0.98;0.88;;;;;;;14.83;68.42;99929.47;1662213;85;21266;-78
2021/09/25 13:32:58;;;;;;;1.22;1.12;;;;;;;14.94;67.43;99931.56;1662011;86;21198;-78
2021/09/25 13:36:03;;;;;;;4.00;1.20;;;;;;;14.95;67.18;99923.61;1662289;86;21289;-81
2021/09/25 13:39:08;;;;;;;3.27;1.10;;;;;;;14.93;67.99;99939.52;1662265;86;21175;-78
2021/09/25 13:42:12;;;;;;;3.70;1.40;;;;;;;14.90;67.34;99942.69;1661049;86;21333;-80
2021/09/25 13:45:19;;;;;;;1.22;1.10;;;;;;;14.86;66.37;99944.70;1688992;85;21224;-79
2021/09/25 13:48:25;;;;;;;1.57;1.42;;;;;;;14.82;66.43;99955.31;1691214;85;21225;-78
2021/09/25 13:51:30;;;;;;;2.52;1.40;;;;;;;14.75;65.56;99957.20;1678646;85;21375;-79
2021/09/25 13:54:36;;;;;;;3.00;1.62;;;;;;;14.70;65.87;99964.73;1690526;85;21410;-79
2021/09/25 13:57:41;;;;;;;4.42;1.90;;;;;;;14.66;66.56;99973.62;1679423;85;21311;-81
2021/09/25 14:00:48;;;;;;;3.12;1.92;;;;;;;14.60;67.91;99978.06;1690436;85;21330;-81
2021/09/25 14:03:52;;;;;;;2.80;1.87;;;;;;;14.53;67.71;99982.70;1691356;85;21228;-79
2021/09/25 14:06:57;;;;;;;6.25;1.82;;;;;;;14.46;67.87;99984.58;1690843;85;22053;-78
2021/09/25 14:10:03;;;;;;;3.30;2.30;;;;;;;14.35;68.19;99987.43;1691239;85;21327;-80
2021/09/25 14:13:12;;;;;;;3.10;2.10;;;;;;;14.27;68.17;99991.74;1689473;85;21386;-81
2021/09/25 14:16:18;;;;;;;5.47;2.72;;;;;;;14.20;68.91;100003.24;1664480;86;21259;-78
2021/09/25 14:19:24;;;;;;;3.95;2.83;;;;;;;14.13;69.28;100003.23;1680150;85;21916;-81
2021/09/25 14:22:28;;;;;;;6.45;3.02;;;;;;;14.10;69.49;100013.80;1663488;86;21246;-78
2021/09/25 14:25:34;;;;;;;25.70;4.05;;;;;;;14.04;69.96;100023.19;1680021;85;21811;-79
2021/09/25 14:28:39;;;;;;;4.75;3.37;;;;;;;14.00;70.28;100023.28;1670813;84;21839;-78
2021/09/25 14:31:45;;;;;;;3.40;3.10;;;;;;;13.98;70.54;100031.43;1678940;84;21316;-80